createdAt,value
2017-06-20T00:00:25.944Z,20.85
2017-06-20T00:01:40.538Z,20.94
2017-06-20T00:02:25.948Z,20.85
2017-06-20T00:03:25.669Z,20.79
2017-06-20T00:04:25.698Z,20.79
2017-06-20T00:05:26.027Z,20.67
2017-06-20T00:06:26.061Z,20.69
2017-06-20T00:07:26.083Z,20.84
2017-06-20T00:08:26.108Z,20.82
2017-06-20T00:09:26.133Z,20.87
2017-06-20T00:10:26.193Z,20.89
2017-06-20T00:11:26.186Z,20.85
2017-06-20T00:13:26.240Z,20.87
2017-06-20T00:14:26.267Z,20.92
2017-06-20T00:15:40.913Z,20.91
2017-06-20T00:16:26.322Z,20.85
2017-06-20T00:17:40.965Z,20.85
2017-06-20T00:18:26.373Z,20.82
2017-06-20T00:19:26.404Z,20.77
2017-06-20T00:20:26.429Z,20.8
2017-06-20T00:21:26.456Z,20.72
2017-06-20T00:22:26.484Z,20.67
2017-06-20T00:24:26.536Z,20.72
2017-06-20T00:26:26.594Z,20.82
2017-06-20T00:27:26.616Z,20.8
2017-06-20T00:28:26.640Z,20.87
2017-06-20T00:30:26.695Z,20.94
2017-06-20T00:31:26.418Z,20.91
2017-06-20T00:32:41.365Z,20.88
2017-06-20T00:33:41.392Z,20.88
2017-06-20T00:34:26.800Z,20.95
2017-06-20T00:35:26.831Z,20.85
2017-06-20T00:36:26.601Z,20.84
2017-06-20T00:37:26.881Z,20.8
2017-06-20T00:38:26.957Z,20.76
2017-06-20T00:39:26.934Z,20.7
2017-06-20T00:40:26.960Z,20.72
2017-06-20T00:41:26.988Z,20.72
2017-06-20T00:43:27.040Z,20.61
2017-06-20T00:44:27.066Z,20.54
2017-06-20T00:45:27.101Z,20.36
2017-06-20T00:46:41.739Z,20.29
2017-06-20T00:47:27.152Z,20.32
2017-06-20T00:48:41.793Z,20.21
2017-06-20T00:49:27.201Z,20.24
2017-06-20T00:50:26.925Z,20.16
2017-06-20T00:51:27.255Z,20.24
2017-06-20T00:52:27.282Z,20.23
2017-06-20T00:53:27.310Z,20.16
2017-06-20T00:54:27.337Z,20.24
2017-06-20T00:55:27.360Z,20.26
2017-06-20T00:56:27.389Z,20.2
2017-06-20T00:57:27.413Z,20.2
2017-06-20T00:58:27.440Z,20.26
2017-06-20T00:59:27.466Z,20.31
2017-06-20T01:00:27.496Z,20.24
2017-06-20T01:01:42.138Z,20.24
2017-06-20T01:02:27.545Z,20.28
2017-06-20T01:03:27.575Z,20.21
2017-06-20T01:04:27.603Z,20.2
2017-06-20T01:05:27.626Z,20.21
2017-06-20T01:07:27.679Z,20.2
2017-06-20T01:08:27.706Z,20.2
2017-06-20T01:09:27.730Z,20.33
2017-06-20T01:10:27.757Z,20.36
2017-06-20T01:11:27.786Z,20.23
2017-06-20T01:12:27.810Z,20.21
2017-06-20T01:13:27.837Z,20.23
2017-06-20T01:15:27.893Z,20.23
2017-06-20T01:16:42.536Z,20.1
2017-06-20T01:17:42.561Z,20.01
2017-06-20T01:18:27.970Z,19.94
2017-06-20T01:19:27.999Z,19.88
2017-06-20T01:20:42.639Z,19.84
2017-06-20T01:21:28.048Z,19.76
2017-06-20T01:22:28.076Z,19.74
2017-06-20T01:23:28.100Z,19.73
2017-06-20T01:24:28.132Z,19.69
2017-06-20T01:25:27.851Z,19.71
2017-06-20T01:26:28.181Z,19.59
2017-06-20T01:27:28.208Z,19.61
2017-06-20T01:28:28.232Z,19.63
2017-06-20T01:29:28.261Z,19.54
2017-06-20T01:30:28.289Z,19.61
2017-06-20T01:31:28.312Z,19.58
2017-06-20T01:32:42.956Z,19.55
2017-06-20T01:33:42.983Z,19.62
2017-06-20T01:34:28.391Z,19.58
2017-06-20T01:35:28.417Z,19.51
2017-06-20T01:36:43.062Z,19.41
2017-06-20T01:37:28.470Z,19.5
2017-06-20T01:38:28.496Z,19.41
2017-06-20T01:39:28.521Z,19.4
2017-06-20T01:40:43.180Z,19.37
2017-06-20T01:41:43.203Z,19.4
2017-06-20T01:42:28.603Z,19.21
2017-06-20T01:43:28.627Z,19.33
2017-06-20T01:44:28.653Z,19.4
2017-06-20T01:45:28.677Z,19.4
2017-06-20T01:46:28.706Z,19.31
2017-06-20T01:48:28.757Z,19.41
2017-06-20T01:49:28.480Z,19.23
2017-06-20T01:50:28.809Z,19.21
2017-06-20T01:51:28.836Z,19.07
2017-06-20T01:52:43.479Z,19.04
2017-06-20T01:53:28.886Z,18.98
2017-06-20T01:54:28.914Z,18.94
2017-06-20T01:55:28.939Z,18.9
2017-06-20T01:56:28.968Z,19.02
2017-06-20T01:57:28.990Z,19.07
2017-06-20T01:58:29.018Z,19.08
2017-06-20T01:59:29.045Z,19.08
2017-06-20T02:00:29.068Z,19.07
2017-06-20T02:01:28.791Z,19.1
2017-06-20T02:05:29.199Z,18.92
2017-06-20T02:06:29.235Z,18.8
2017-06-20T02:07:29.256Z,18.78
2017-06-20T02:08:43.897Z,18.67
2017-06-20T02:09:29.309Z,18.78
2017-06-20T02:10:29.330Z,18.84
2017-06-20T02:11:29.359Z,18.7
2017-06-20T02:12:29.383Z,18.67
2017-06-20T02:13:29.407Z,18.55
2017-06-20T02:14:29.431Z,18.7
2017-06-20T02:15:29.459Z,18.75
2017-06-20T02:16:29.496Z,18.67
2017-06-20T02:17:29.510Z,18.57
2017-06-20T02:18:29.541Z,18.67
2017-06-20T02:19:29.563Z,18.66
2017-06-20T02:20:29.591Z,18.55
2017-06-20T02:21:44.234Z,18.55
2017-06-20T02:22:29.642Z,18.52
2017-06-20T02:23:44.286Z,18.44
2017-06-20T02:24:29.699Z,18.44
2017-06-20T02:25:29.723Z,18.52
2017-06-20T02:26:29.751Z,18.51
2017-06-20T02:27:29.774Z,18.55
2017-06-20T02:28:29.495Z,18.65
2017-06-20T02:30:29.547Z,18.62
2017-06-20T02:32:29.649Z,18.7
2017-06-20T02:35:44.597Z,18.65
2017-06-20T02:36:30.005Z,18.65
2017-06-20T02:37:30.033Z,18.65
2017-06-20T02:38:30.060Z,18.36
2017-06-20T02:39:29.788Z,18.37
2017-06-20T02:40:30.107Z,18.45
2017-06-20T02:41:30.143Z,18.44
2017-06-20T02:42:30.162Z,18.35
2017-06-20T02:43:30.184Z,18.45
2017-06-20T02:44:30.211Z,18.39
2017-06-20T02:46:30.264Z,18.44
2017-06-20T02:47:30.287Z,18.39
2017-06-20T02:48:30.314Z,18.41
2017-06-20T02:50:30.366Z,18.32
2017-06-20T02:51:30.391Z,18.25
2017-06-20T02:52:45.035Z,18.23
2017-06-20T02:53:30.446Z,18.12
2017-06-20T02:54:30.471Z,18.12
2017-06-20T02:55:45.114Z,18.08
2017-06-20T02:56:30.522Z,18.12
2017-06-20T02:57:30.548Z,18.2
2017-06-20T02:58:30.573Z,18.27
2017-06-20T02:59:30.596Z,18.3
2017-06-20T03:00:30.623Z,18.29
2017-06-20T03:01:30.649Z,18.25
2017-06-20T03:02:30.682Z,18.23
2017-06-20T03:03:30.702Z,18.29
2017-06-20T03:04:30.726Z,18.2
2017-06-20T03:07:30.843Z,18.2
2017-06-20T03:08:45.448Z,18.18
2017-06-20T03:09:30.861Z,18.25
2017-06-20T03:10:30.882Z,18.27
2017-06-20T03:11:45.524Z,18.23
2017-06-20T03:12:30.932Z,18.26
2017-06-20T03:13:30.958Z,18.26
2017-06-20T03:14:30.983Z,18.25
2017-06-20T03:15:31.012Z,18.27
2017-06-20T03:16:31.035Z,18.33
2017-06-20T03:17:31.061Z,18.42
2017-06-20T03:18:31.086Z,18.45
2017-06-20T03:20:31.137Z,18.47
2017-06-20T03:21:31.165Z,18.44
2017-06-20T03:22:31.189Z,18.51
2017-06-20T03:23:31.319Z,18.37
2017-06-20T03:24:45.867Z,18.41
2017-06-20T03:25:31.267Z,18.33
2017-06-20T03:26:31.291Z,18.44
2017-06-20T03:27:45.935Z,18.45
2017-06-20T03:28:31.343Z,18.47
2017-06-20T03:29:31.368Z,18.47
2017-06-20T03:30:31.397Z,18.54
2017-06-20T03:31:31.419Z,18.54
2017-06-20T03:32:31.448Z,18.63
2017-06-20T03:33:31.472Z,18.63
2017-06-20T03:34:31.497Z,18.65
2017-06-20T03:35:31.220Z,18.7
2017-06-20T03:36:31.550Z,18.75
2017-06-20T03:37:31.576Z,18.75
2017-06-20T03:38:31.600Z,18.8
2017-06-20T03:40:31.652Z,18.7
2017-06-20T03:41:31.677Z,18.85
2017-06-20T03:42:31.703Z,18.75
2017-06-20T03:43:46.347Z,18.87
2017-06-20T03:44:31.754Z,18.8
2017-06-20T03:45:31.478Z,18.81
2017-06-20T03:46:31.806Z,18.82
2017-06-20T03:47:31.833Z,18.98
2017-06-20T03:48:31.858Z,18.95
2017-06-20T03:49:31.584Z,19.06
2017-06-20T03:51:31.935Z,19.08
2017-06-20T03:52:31.659Z,19.14
2017-06-20T03:54:31.712Z,19.23
2017-06-20T03:55:46.658Z,19.23
2017-06-20T03:56:31.764Z,19.28
2017-06-20T03:57:32.118Z,19.33
2017-06-20T03:58:46.736Z,19.51
2017-06-20T03:59:32.143Z,19.55
2017-06-20T04:00:32.170Z,19.56
2017-06-20T04:01:32.197Z,19.66
2017-06-20T04:02:32.221Z,19.68
2017-06-20T04:03:32.246Z,19.73
2017-06-20T04:04:31.968Z,19.63
2017-06-20T04:05:32.300Z,19.55
2017-06-20T04:06:32.325Z,19.59
2017-06-20T04:07:32.354Z,19.77
2017-06-20T04:08:32.379Z,19.78
2017-06-20T04:09:32.404Z,19.91
2017-06-20T04:10:32.429Z,20.26
2017-06-20T04:11:32.455Z,20.69
2017-06-20T04:12:32.480Z,21.27
2017-06-20T04:13:32.512Z,21.83
2017-06-20T04:14:32.283Z,22.43
2017-06-20T04:15:32.559Z,23
2017-06-20T04:16:32.286Z,23.55
2017-06-20T04:17:32.313Z,24.02
2017-06-20T04:18:32.339Z,24.42
2017-06-20T04:19:32.670Z,24.85
2017-06-20T04:20:32.704Z,25.24
2017-06-20T04:21:32.727Z,25.73
2017-06-20T04:22:32.753Z,26.23
2017-06-20T04:24:32.809Z,27.13
2017-06-20T04:25:32.844Z,27.47
2017-06-20T04:26:32.869Z,27.65
2017-06-20T04:27:47.517Z,27.96
2017-06-20T04:28:32.626Z,28.25
2017-06-20T04:29:32.654Z,28.59
2017-06-20T04:30:47.606Z,29.18
2017-06-20T04:31:33.020Z,29.61
2017-06-20T04:32:32.747Z,30.01
2017-06-20T04:33:32.778Z,30.31
2017-06-20T04:34:33.111Z,30.73
2017-06-20T04:35:33.144Z,31.02
2017-06-20T04:36:33.174Z,31.44
2017-06-20T04:37:33.206Z,31.75
2017-06-20T04:38:33.237Z,31.56
2017-06-20T04:39:32.663Z,31.43
2017-06-20T04:41:33.336Z,30.86
2017-06-20T04:42:33.066Z,31.04
2017-06-20T04:43:33.097Z,31.02
2017-06-20T04:44:33.437Z,30.64
2017-06-20T04:45:33.162Z,30.61
2017-06-20T04:46:48.123Z,30.95
2017-06-20T04:47:33.533Z,31.04
2017-06-20T04:48:33.564Z,31.07
2017-06-20T04:49:33.601Z,31.36
2017-06-20T04:50:33.331Z,31.31
2017-06-20T04:51:33.061Z,31.14
2017-06-20T04:52:33.701Z,30.98
2017-06-20T04:53:33.738Z,30.57
2017-06-20T04:54:33.766Z,30.67
2017-06-20T04:55:33.801Z,31.07
2017-06-20T04:56:33.531Z,31.39
2017-06-20T04:57:33.868Z,31.73
2017-06-20T04:58:48.523Z,31.81
2017-06-20T04:59:33.631Z,31.76
2017-06-20T05:00:34.024Z,31.62
2017-06-20T05:01:33.397Z,31.47
2017-06-20T05:02:48.353Z,31.44
2017-06-20T05:03:34.077Z,31.51
2017-06-20T05:04:33.805Z,31.7
2017-06-20T05:05:33.837Z,31.8
2017-06-20T05:06:33.869Z,32.19
2017-06-20T05:07:34.209Z,32.35
2017-06-20T05:08:34.244Z,32.62
2017-06-20T05:09:34.278Z,32.45
2017-06-20T05:10:34.312Z,32.56
2017-06-20T05:11:34.343Z,32.57
2017-06-20T05:14:49.067Z,32.77
2017-06-20T05:15:34.483Z,32.99
2017-06-20T05:16:34.520Z,33.03
2017-06-20T05:17:34.550Z,33.28
2017-06-20T05:18:49.206Z,33.32
2017-06-20T05:19:34.316Z,33.11
2017-06-20T05:20:34.353Z,33.57
2017-06-20T05:21:34.692Z,33.78
2017-06-20T05:22:34.422Z,34.19
2017-06-20T05:23:34.456Z,34.32
2017-06-20T05:24:34.493Z,34.62
2017-06-20T05:25:34.584Z,35.04
2017-06-20T05:26:34.566Z,35.28
2017-06-20T05:27:34.600Z,35.53
2017-06-20T05:29:34.672Z,36.47
2017-06-20T05:30:49.327Z,36.64
2017-06-20T05:31:35.045Z,36.31
2017-06-20T05:32:34.779Z,36.73
2017-06-20T05:33:49.738Z,36.73
2017-06-20T05:34:35.156Z,37.12
2017-06-20T05:35:35.193Z,36.99
2017-06-20T05:36:34.922Z,36.93
2017-06-20T05:37:34.959Z,37.12
2017-06-20T05:38:35.306Z,37.2
2017-06-20T05:39:35.343Z,36.95
2017-06-20T05:40:35.372Z,36.57
2017-06-20T05:41:35.414Z,36.6
2017-06-20T05:42:35.447Z,36.57
2017-06-20T05:43:35.482Z,36.41
2017-06-20T05:44:35.520Z,36.37
2017-06-20T05:45:35.562Z,36.29
2017-06-20T05:46:35.592Z,36.59
2017-06-20T05:47:35.630Z,37.12
2017-06-20T05:48:35.666Z,37.36
2017-06-20T05:49:35.404Z,37.55
2017-06-20T05:50:35.740Z,37.13
2017-06-20T05:51:35.778Z,37.07
2017-06-20T05:52:35.813Z,37.03
2017-06-20T05:53:35.545Z,37.1
2017-06-20T05:54:35.582Z,37.37
2017-06-20T05:55:35.622Z,37.63
2017-06-20T05:57:35.996Z,38.31
2017-06-20T05:58:36.034Z,38
2017-06-20T06:00:35.804Z,38.34
2017-06-20T06:01:36.148Z,38.78
2017-06-20T06:02:50.803Z,38.9
2017-06-20T06:03:35.916Z,39.23
2017-06-20T06:04:50.878Z,39.63
2017-06-20T06:05:50.917Z,39.64
2017-06-20T06:06:36.332Z,39.96
2017-06-20T06:07:36.370Z,40.29
2017-06-20T06:08:36.409Z,40.06
2017-06-20T06:09:36.445Z,40.23
2017-06-20T06:10:36.181Z,40.69
2017-06-20T06:11:36.522Z,40.32
2017-06-20T06:12:36.256Z,40.42
2017-06-20T06:13:36.598Z,40.45
2017-06-20T06:14:36.636Z,39.92
2017-06-20T06:15:36.705Z,40.31
2017-06-20T06:16:51.387Z,40.23
2017-06-20T06:17:36.754Z,40.15
2017-06-20T06:18:51.413Z,39.86
2017-06-20T06:19:36.836Z,39.78
2017-06-20T06:20:36.870Z,39.72
2017-06-20T06:21:51.527Z,38.88
2017-06-20T06:22:36.947Z,38.5
2017-06-20T06:23:37.017Z,38.6
2017-06-20T06:24:36.718Z,39.04
2017-06-20T06:25:37.061Z,39.33
2017-06-20T06:26:37.101Z,39.4
2017-06-20T06:27:37.144Z,39.51
2017-06-20T06:28:37.177Z,39.57
2017-06-20T06:30:36.954Z,40.34
2017-06-20T06:32:37.338Z,40.77
2017-06-20T06:33:37.071Z,40.77
2017-06-20T06:34:52.031Z,40.89
2017-06-20T06:35:37.448Z,40.99
2017-06-20T06:36:37.490Z,40.94
2017-06-20T06:37:52.148Z,41.08
2017-06-20T06:38:37.565Z,41.2
2017-06-20T06:39:37.606Z,41.28
2017-06-20T06:40:37.653Z,41.28
2017-06-20T06:41:37.683Z,41.63
2017-06-20T06:42:37.726Z,41.89
2017-06-20T06:43:37.813Z,41.47
2017-06-20T06:44:37.802Z,40.77
2017-06-20T06:45:37.842Z,40.25
2017-06-20T06:47:38.123Z,39.92
2017-06-20T06:48:37.658Z,39.69
2017-06-20T06:49:37.697Z,39.23
2017-06-20T06:50:38.042Z,39.28
2017-06-20T06:51:38.083Z,38.38
2017-06-20T06:52:38.120Z,37.91
2017-06-20T06:53:52.781Z,38.86
2017-06-20T06:54:37.934Z,39.66
2017-06-20T06:55:38.240Z,40.2
2017-06-20T06:56:38.281Z,40.29
2017-06-20T06:57:38.319Z,39.94
2017-06-20T06:59:38.398Z,40.25
2017-06-20T07:00:38.492Z,40.43
2017-06-20T07:01:38.479Z,40.69
2017-06-20T07:02:38.517Z,41.01
2017-06-20T07:04:38.294Z,40.15
2017-06-20T07:05:38.642Z,39.18
2017-06-20T07:06:53.300Z,37.81
2017-06-20T07:07:38.771Z,37.43
2017-06-20T07:08:53.381Z,37.41
2017-06-20T07:09:38.501Z,37.49
2017-06-20T07:10:38.840Z,37.37
2017-06-20T07:11:38.879Z,38
2017-06-20T07:12:38.919Z,38.75
2017-06-20T07:13:38.960Z,39.21
2017-06-20T07:15:39.040Z,39.72
2017-06-20T07:16:39.078Z,39.97
2017-06-20T07:19:39.197Z,39.4
2017-06-20T07:20:39.237Z,38.87
2017-06-20T07:21:38.976Z,39.13
2017-06-20T07:22:39.317Z,39.59
2017-06-20T07:23:39.358Z,40.27
2017-06-20T07:24:39.396Z,40.18
2017-06-20T07:25:39.434Z,40
2017-06-20T07:26:39.477Z,39.81
2017-06-20T07:27:39.517Z,38.83
2017-06-20T07:28:39.555Z,37.72
2017-06-20T07:29:39.594Z,38.07
2017-06-20T07:30:39.639Z,38.04
2017-06-20T07:31:39.675Z,38.57
2017-06-20T07:33:39.455Z,38.04
2017-06-20T07:34:39.795Z,38.25
2017-06-20T07:35:39.531Z,38.83
2017-06-20T07:36:54.545Z,39.59
2017-06-20T07:37:39.915Z,39.4
2017-06-20T07:38:39.954Z,39.22
2017-06-20T07:39:40.043Z,38.65
2017-06-20T07:40:54.653Z,38.72
2017-06-20T07:41:40.079Z,38.78
2017-06-20T07:42:40.111Z,38.83
2017-06-20T07:43:39.846Z,38.63
2017-06-20T07:44:40.194Z,38.86
2017-06-20T07:45:40.236Z,38.88
2017-06-20T07:46:40.274Z,38.83
2017-06-20T07:47:40.005Z,38.47
2017-06-20T07:48:40.047Z,38.07
2017-06-20T07:49:40.427Z,37.64
2017-06-20T07:50:40.428Z,36.95
2017-06-20T07:51:40.469Z,37.29
2017-06-20T07:52:55.130Z,38.66
2017-06-20T07:53:55.169Z,39.09
2017-06-20T07:54:40.283Z,39.1
2017-06-20T07:55:40.626Z,38.88
2017-06-20T07:56:55.286Z,38.2
2017-06-20T07:57:40.706Z,38.16
2017-06-20T07:58:40.744Z,38.16
2017-06-20T07:59:40.786Z,38.31
2017-06-20T08:00:40.824Z,38.76
2017-06-20T08:01:40.863Z,38.93
2017-06-20T08:02:40.600Z,38.07
2017-06-20T08:03:40.945Z,38.15
2017-06-20T08:04:40.682Z,38.3
2017-06-20T08:06:41.058Z,38.96
2017-06-20T08:08:41.137Z,38.4
2017-06-20T08:09:40.875Z,38.57
2017-06-20T08:10:40.915Z,38.78
2017-06-20T08:11:40.952Z,38.54
2017-06-20T08:12:55.915Z,38.72
2017-06-20T08:13:41.029Z,39.07
2017-06-20T08:14:41.069Z,39.21
2017-06-20T08:15:40.808Z,39.35
2017-06-20T08:16:41.450Z,39.84
2017-06-20T08:17:41.489Z,39.78
2017-06-20T08:19:41.265Z,40.35
2017-06-20T08:20:41.606Z,40.26
2017-06-20T08:21:41.647Z,40.18
2017-06-20T08:24:56.388Z,38.9
2017-06-20T08:25:41.802Z,39.23
2017-06-20T08:26:41.540Z,39.04
2017-06-20T08:27:41.882Z,38.88
2017-06-20T08:28:56.546Z,38.91
2017-06-20T08:29:41.962Z,38.95
2017-06-20T08:30:42.001Z,38.86
2017-06-20T08:31:42.038Z,38.69
2017-06-20T08:32:42.077Z,38.09
2017-06-20T08:33:42.117Z,38.42
2017-06-20T08:34:42.157Z,39.18
2017-06-20T08:35:42.196Z,39.69
2017-06-20T08:36:42.235Z,39.66
2017-06-20T08:37:41.967Z,38.71
2017-06-20T08:39:56.664Z,38.79
2017-06-20T08:40:42.082Z,38.86
2017-06-20T08:41:42.122Z,38.98
2017-06-20T08:42:42.163Z,39.03
2017-06-20T08:43:57.124Z,38.98
2017-06-20T08:44:42.236Z,39.09
2017-06-20T08:45:42.275Z,38.32
2017-06-20T08:46:42.620Z,38.38
2017-06-20T08:47:42.353Z,38.26
2017-06-20T08:48:42.434Z,37.96
2017-06-20T08:49:42.737Z,37.34
2017-06-20T08:50:42.161Z,37.2
2017-06-20T08:51:42.807Z,37.18
2017-06-20T08:52:42.541Z,36.64
2017-06-20T08:54:42.620Z,36.72
2017-06-20T08:55:42.958Z,36.72
2017-06-20T08:56:43.002Z,36.5
2017-06-20T08:57:42.728Z,36.09
2017-06-20T08:58:43.070Z,36.01
2017-06-20T08:59:42.811Z,35.38
2017-06-20T09:00:42.840Z,34.99
2017-06-20T09:01:43.187Z,34.62
2017-06-20T09:02:42.916Z,34.4
2017-06-20T09:03:42.650Z,34.35
2017-06-20T09:04:42.989Z,34.53
2017-06-20T09:05:42.722Z,34.99
2017-06-20T09:06:43.367Z,35.66
2017-06-20T09:07:58.027Z,36.09
2017-06-20T09:09:43.479Z,36.78
2017-06-20T09:10:43.515Z,36.95
2017-06-20T09:11:43.550Z,36.51
2017-06-20T09:12:43.286Z,35.84
2017-06-20T09:13:43.621Z,35.85
2017-06-20T09:14:43.661Z,35.97
2017-06-20T09:15:58.315Z,36.46
2017-06-20T09:16:43.731Z,36.73
2017-06-20T09:17:43.769Z,36.95
2017-06-20T09:18:43.499Z,36.73
2017-06-20T09:19:43.891Z,36.93
2017-06-20T09:20:43.572Z,37.2
2017-06-20T09:21:43.919Z,36.64
2017-06-20T09:22:43.342Z,36.39
2017-06-20T09:23:43.683Z,35.68
2017-06-20T09:25:44.109Z,34.88
2017-06-20T09:26:43.503Z,35.16
2017-06-20T09:27:44.134Z,35.56
2017-06-20T09:28:43.868Z,36.13
2017-06-20T09:29:58.824Z,36.56
2017-06-20T09:30:44.243Z,36.71
2017-06-20T09:31:58.898Z,37
2017-06-20T09:32:43.715Z,36.99
2017-06-20T09:33:44.350Z,37.18
2017-06-20T09:34:44.384Z,37.22
2017-06-20T09:35:44.421Z,36.59
2017-06-20T09:36:44.156Z,36.31
2017-06-20T09:37:44.191Z,36.12
2017-06-20T09:38:44.228Z,36.39
2017-06-20T09:39:44.573Z,36.54
2017-06-20T09:41:44.642Z,36.34
2017-06-20T09:42:44.377Z,35.93
2017-06-20T09:43:44.412Z,36.07
2017-06-20T09:44:44.749Z,35.23
2017-06-20T09:45:44.786Z,35.1
2017-06-20T09:46:44.524Z,35.84
2017-06-20T09:47:59.174Z,36.53
2017-06-20T09:48:44.594Z,36.8
2017-06-20T09:49:44.931Z,36.28
2017-06-20T09:50:44.663Z,35.56
2017-06-20T09:51:45.002Z,35.63
2017-06-20T09:52:45.041Z,35.55
2017-06-20T09:54:45.108Z,36.64
2017-06-20T09:55:45.145Z,37.15
2017-06-20T09:56:45.180Z,37.28
2017-06-20T09:59:45.288Z,35.18
2017-06-20T10:00:45.524Z,35.25
2017-06-20T10:01:45.413Z,36.07
2017-06-20T10:02:45.396Z,36.56
2017-06-20T10:04:00.053Z,36.73
2017-06-20T10:04:45.468Z,36.64
2017-06-20T10:05:45.503Z,37.24
2017-06-20T10:06:45.540Z,37.66
2017-06-20T10:07:45.271Z,37.98
2017-06-20T10:08:45.612Z,37.67
2017-06-20T10:09:45.647Z,38.03
2017-06-20T10:10:45.683Z,37.56
2017-06-20T10:11:45.718Z,36.9
2017-06-20T10:15:00.142Z,35.82
2017-06-20T10:15:45.861Z,35.06
2017-06-20T10:16:45.902Z,33.94
2017-06-20T10:17:45.935Z,32.99
2017-06-20T10:19:00.591Z,33.16
2017-06-20T10:19:46.006Z,33.44
2017-06-20T10:20:46.340Z,33.73
2017-06-20T10:21:45.770Z,34.75
2017-06-20T10:22:46.113Z,34.99
2017-06-20T10:23:46.145Z,35.07
2017-06-20T10:24:46.180Z,35.19
2017-06-20T10:25:46.217Z,35.07
2017-06-20T10:26:46.254Z,35.22
2017-06-20T10:27:46.288Z,35.55
2017-06-20T10:28:46.320Z,34.61
2017-06-20T10:29:46.056Z,34.16
2017-06-20T10:30:46.394Z,33.61
2017-06-20T10:32:01.049Z,33.57
2017-06-20T10:32:46.460Z,33.29
2017-06-20T10:33:46.194Z,33.31
2017-06-20T10:34:46.537Z,33.06
2017-06-20T10:35:46.564Z,33.11
2017-06-20T10:36:46.606Z,32.84
2017-06-20T10:37:46.334Z,32.75
2017-06-20T10:38:46.681Z,32.47
2017-06-20T10:39:46.706Z,32.19
2017-06-20T10:40:46.436Z,32.56
2017-06-20T10:41:46.775Z,33.21
2017-06-20T10:42:46.807Z,33.65
2017-06-20T10:43:46.847Z,33.97
2017-06-20T10:44:46.877Z,34.05
2017-06-20T10:45:46.608Z,34.34
2017-06-20T10:47:01.565Z,34.44
2017-06-20T10:48:01.600Z,34
2017-06-20T10:48:47.015Z,33.59
2017-06-20T10:49:47.048Z,33.44
2017-06-20T10:51:01.703Z,33.22
2017-06-20T10:51:47.119Z,32.79
2017-06-20T10:52:47.153Z,32.38
2017-06-20T10:53:46.887Z,32.37
2017-06-20T10:54:47.221Z,32.28
2017-06-20T10:55:47.255Z,32.1
2017-06-20T10:56:47.290Z,32.26
2017-06-20T10:57:47.323Z,32.33
2017-06-20T10:58:47.358Z,32.67
2017-06-20T11:02:47.496Z,32.94
2017-06-20T11:03:47.530Z,33.03
2017-06-20T11:04:47.562Z,33.31
2017-06-20T11:05:47.597Z,33.28
2017-06-20T11:07:02.251Z,33.72
2017-06-20T11:07:47.666Z,33.94
2017-06-20T11:08:47.698Z,33.72
2017-06-20T11:09:47.733Z,33.94
2017-06-20T11:10:47.770Z,34.39
2017-06-20T11:11:47.802Z,34.72
2017-06-20T11:12:47.835Z,34.65
2017-06-20T11:13:47.869Z,34.39
2017-06-20T11:14:47.907Z,34.1
2017-06-20T11:16:48.027Z,33.12
2017-06-20T11:17:48.007Z,32.92
2017-06-20T11:18:48.044Z,32.51
2017-06-20T11:19:48.075Z,32.67
2017-06-20T11:20:48.109Z,32.94
2017-06-20T11:21:47.846Z,33.11
2017-06-20T11:23:02.797Z,33.28
2017-06-20T11:23:47.906Z,33.32
2017-06-20T11:24:48.243Z,33.12
2017-06-20T11:25:48.281Z,32.92
2017-06-20T11:26:48.317Z,32.4
2017-06-20T11:27:48.041Z,32.1
2017-06-20T11:28:48.380Z,32.06
2017-06-20T11:29:48.414Z,32.01
2017-06-20T11:30:48.446Z,32.01
2017-06-20T11:31:48.484Z,32.3
2017-06-20T11:33:48.549Z,32.45
2017-06-20T11:34:48.581Z,32.87
2017-06-20T11:35:48.311Z,32.59
2017-06-20T11:36:48.648Z,32.79
2017-06-20T11:37:48.682Z,33.06
2017-06-20T11:39:03.386Z,32.93
2017-06-20T11:39:48.491Z,33.11
2017-06-20T11:40:48.785Z,33.03
2017-06-20T11:41:48.816Z,33.34
2017-06-20T11:42:48.853Z,32.97
2017-06-20T11:43:48.631Z,32.89
2017-06-20T11:44:48.921Z,32.72
2017-06-20T11:45:48.952Z,32.44
2017-06-20T11:46:48.986Z,32.06
2017-06-20T11:47:48.717Z,31.78
2017-06-20T11:48:49.051Z,31.25
2017-06-20T11:49:48.783Z,31.34
2017-06-20T11:50:48.819Z,31.43
2017-06-20T11:51:48.852Z,31.73
2017-06-20T11:52:49.187Z,31.89
2017-06-20T11:54:03.840Z,31.89
2017-06-20T11:54:49.256Z,32.14
2017-06-20T11:55:48.983Z,32.3
2017-06-20T11:56:49.322Z,32.33
2017-06-20T11:57:49.053Z,32.35
2017-06-20T11:58:49.395Z,32.78
2017-06-20T11:59:49.428Z,32.82
2017-06-20T12:00:49.464Z,32.87
2017-06-20T12:02:49.525Z,33.03
2017-06-20T12:04:49.286Z,32.52
2017-06-20T12:05:49.320Z,32.72
2017-06-20T12:07:03.969Z,32.52
2017-06-20T12:07:49.688Z,32.55
2017-06-20T12:08:49.418Z,32.72
2017-06-20T12:09:49.450Z,32.63
2017-06-20T12:10:49.787Z,32.33
2017-06-20T12:11:49.821Z,32.07
2017-06-20T12:12:49.855Z,31.95
2017-06-20T12:13:49.887Z,31.91
2017-06-20T12:14:49.923Z,31.76
2017-06-20T12:15:49.960Z,31.66
2017-06-20T12:16:49.990Z,31.36
2017-06-20T12:17:50.018Z,31.54
2017-06-20T12:19:50.088Z,31.81
2017-06-20T12:21:04.740Z,31.69
2017-06-20T12:21:50.152Z,31.54
2017-06-20T12:23:04.805Z,31.85
2017-06-20T12:23:50.226Z,31.72
2017-06-20T12:24:50.250Z,31.63
2017-06-20T12:26:04.904Z,31.86
2017-06-20T12:26:50.322Z,32.06
2017-06-20T12:27:50.354Z,32.11
2017-06-20T12:28:50.386Z,32.11
2017-06-20T12:29:50.416Z,32.15
2017-06-20T12:30:50.452Z,32.15
2017-06-20T12:31:50.483Z,32.15
2017-06-20T12:32:50.517Z,32.25
2017-06-20T12:33:50.549Z,32.18
2017-06-20T12:34:50.625Z,31.96
2017-06-20T12:35:50.311Z,32.1
2017-06-20T12:36:50.648Z,32.21
2017-06-20T12:38:05.300Z,31.95
2017-06-20T12:38:50.412Z,32.08
2017-06-20T12:40:05.366Z,31.99
2017-06-20T12:40:50.780Z,31.89
2017-06-20T12:42:05.435Z,31.53
2017-06-20T12:42:50.543Z,31.58
2017-06-20T12:43:50.879Z,31.58
2017-06-20T12:44:50.913Z,31.48
2017-06-20T12:45:50.949Z,31.62
2017-06-20T12:46:50.977Z,31.96
2017-06-20T12:47:51.012Z,32.06
2017-06-20T12:48:51.041Z,31.96
2017-06-20T12:49:51.074Z,31.73
2017-06-20T12:51:51.144Z,31.66
2017-06-20T12:53:51.208Z,31.65
2017-06-20T12:54:51.242Z,31.26
2017-06-20T12:55:51.274Z,31.34
2017-06-20T12:56:51.306Z,31.47
2017-06-20T12:58:05.955Z,31.81
2017-06-20T12:58:51.421Z,31.75
2017-06-20T12:59:51.403Z,31.62
2017-06-20T13:00:51.435Z,31.43
2017-06-20T13:01:51.470Z,31.51
2017-06-20T13:02:50.894Z,31.7
2017-06-20T13:03:51.534Z,31.78
2017-06-20T13:04:51.564Z,31.75
2017-06-20T13:06:51.023Z,31.85
2017-06-20T13:07:51.666Z,31.95
2017-06-20T13:09:51.726Z,32.1
2017-06-20T13:11:06.380Z,31.88
2017-06-20T13:11:51.803Z,31.85
2017-06-20T13:12:51.218Z,31.76
2017-06-20T13:14:06.482Z,32.14
2017-06-20T13:14:51.892Z,32.55
2017-06-20T13:15:51.926Z,32.57
2017-06-20T13:16:51.956Z,32.41
2017-06-20T13:17:51.685Z,32.11
2017-06-20T13:18:52.022Z,32.33
2017-06-20T13:19:52.056Z,32.23
2017-06-20T13:20:51.784Z,32.07
2017-06-20T13:21:52.122Z,31.78
2017-06-20T13:22:51.855Z,31.85
2017-06-20T13:24:52.221Z,31.53
2017-06-20T13:26:06.870Z,31.78
2017-06-20T13:26:52.285Z,31.91
2017-06-20T13:27:52.321Z,31.58
2017-06-20T13:29:06.972Z,31.57
2017-06-20T13:29:52.390Z,31.57
2017-06-20T13:30:52.413Z,31.43
2017-06-20T13:31:52.455Z,31.54
2017-06-20T13:32:52.479Z,31.48
2017-06-20T13:33:52.563Z,31.7
2017-06-20T13:34:52.547Z,31.81
2017-06-20T13:35:52.579Z,32.21
2017-06-20T13:36:52.614Z,32.15
2017-06-20T13:37:52.340Z,32.08
2017-06-20T13:38:52.373Z,31.92
2017-06-20T13:39:52.709Z,32.18
2017-06-20T13:41:07.058Z,32.07
2017-06-20T13:41:52.772Z,31.91
2017-06-20T13:42:52.807Z,31.95
2017-06-20T13:43:52.875Z,31.96
2017-06-20T13:44:52.873Z,32.25
2017-06-20T13:45:52.905Z,32.22
2017-06-20T13:46:52.637Z,32.44
2017-06-20T13:47:52.970Z,32.55
2017-06-20T13:48:53.002Z,32.35
2017-06-20T13:50:53.069Z,32.44
2017-06-20T13:51:53.106Z,32.11
2017-06-20T13:52:53.135Z,31.95
2017-06-20T13:54:53.313Z,31.81
2017-06-20T13:55:53.245Z,31.89
2017-06-20T13:56:53.290Z,31.99
2017-06-20T13:57:53.011Z,32.04
2017-06-20T13:59:53.065Z,32.22
2017-06-20T14:01:08.014Z,31.91
2017-06-20T14:01:53.428Z,31.96
2017-06-20T14:02:53.463Z,31.92
2017-06-20T14:03:53.493Z,31.57
2017-06-20T14:04:53.578Z,31.76
2017-06-20T14:05:53.557Z,31.73